createdAt,value
2024-01-11T00:01:36.409Z,101335.53
2024-01-11T00:04:03.881Z,101339.56
2024-01-11T00:06:31.423Z,101331.22
2024-01-11T00:08:57.997Z,101327.59
2024-01-11T00:11:25.526Z,101335.13
2024-01-11T00:13:52.074Z,101335.13
2024-01-11T00:16:19.524Z,101339.13
2024-01-11T00:18:46.287Z,101346.28
2024-01-11T00:21:13.812Z,101345.13
2024-01-11T00:23:40.428Z,101339.88
2024-01-11T00:26:07.000Z,101338.28
2024-01-11T00:28:34.490Z,101333.13
2024-01-11T00:31:02.000Z,101338.28
2024-01-11T00:33:28.668Z,101337.09
2024-01-11T00:35:55.303Z,101337.91
2024-01-11T00:38:21.855Z,101321.25
2024-01-11T00:40:49.322Z,101316.94
2024-01-11T00:43:16.804Z,101323.59
2024-01-11T00:45:44.359Z,101342.34
2024-01-11T00:48:11.027Z,101357.34
2024-01-11T00:50:39.401Z,101362.53
2024-01-11T00:53:06.953Z,101356.53
2024-01-11T00:55:34.481Z,101333.59
2024-01-11T00:58:01.010Z,101325.25
2024-01-11T01:00:27.563Z,101319.25
2024-01-11T01:02:54.118Z,101311.69
2024-01-11T01:05:20.696Z,101333.50
2024-01-11T01:07:47.347Z,101321.63
2024-01-11T01:10:13.895Z,101327.59
2024-01-11T01:12:40.451Z,101327.53
2024-01-11T01:15:07.952Z,101320.13
2024-01-11T01:17:35.555Z,101298.97
2024-01-11T01:20:02.297Z,101304.53
2024-01-11T01:22:28.885Z,101311.38
2024-01-11T01:24:56.402Z,101302.59
2024-01-11T01:27:23.897Z,101327.94
2024-01-11T01:29:51.411Z,101338.28
2024-01-11T01:32:18.008Z,101330.00
2024-01-11T01:34:48.569Z,101298.59
2024-01-11T01:37:16.435Z,101299.41
2024-01-11T01:39:43.969Z,101294.25
2024-01-11T01:42:10.512Z,101309.75
2024-01-11T01:44:38.224Z,101304.56
2024-01-11T01:47:05.848Z,101295.03
2024-01-11T01:49:33.450Z,101303.78
2024-01-11T01:52:00.940Z,101305.75
2024-01-11T01:54:27.473Z,101297.88
2024-01-11T01:56:54.010Z,101297.00
2024-01-11T01:59:21.461Z,101318.00
2024-01-11T02:01:48.031Z,101310.56
2024-01-11T02:04:14.571Z,101316.38
2024-01-11T02:06:41.091Z,101309.72
2024-01-11T02:09:07.648Z,101307.34
2024-01-11T02:11:35.198Z,101298.97
2024-01-11T02:14:01.864Z,101301.06
2024-01-11T02:16:29.313Z,101306.94
2024-01-11T02:18:56.873Z,101308.91
2024-01-11T02:21:24.391Z,101294.22
2024-01-11T02:23:51.877Z,101290.28
2024-01-11T02:26:18.501Z,101304.94
2024-01-11T02:28:45.980Z,101294.22
2024-01-11T02:31:13.436Z,101280.00
2024-01-11T02:33:41.013Z,101290.97
2024-01-11T02:36:07.605Z,101278.38
2024-01-11T02:38:34.265Z,101280.00
2024-01-11T02:41:01.781Z,101280.38
2024-01-11T02:43:28.310Z,101278.44
2024-01-11T02:45:54.839Z,101272.00
2024-01-11T02:48:22.388Z,101290.66
2024-01-11T02:50:49.070Z,101283.13
2024-01-11T02:53:15.735Z,101281.94
2024-01-11T02:55:43.213Z,101277.22
2024-01-11T02:58:09.733Z,101288.25
2024-01-11T03:00:36.260Z,101285.53
2024-01-11T03:03:03.755Z,101271.63
2024-01-11T03:05:30.449Z,101260.56
2024-01-11T03:07:57.098Z,101254.56
2024-01-11T03:10:24.788Z,101250.94
2024-01-11T03:12:52.280Z,101258.94
2024-01-11T03:15:18.784Z,101251.81
2024-01-11T03:17:45.431Z,101253.00
2024-01-11T03:20:12.988Z,101258.94
2024-01-11T03:22:39.528Z,101253.00
2024-01-11T03:25:07.016Z,101231.66
2024-01-11T03:27:34.456Z,101246.66
2024-01-11T03:30:00.992Z,101235.53
2024-01-11T03:32:28.499Z,101221.63
2024-01-11T03:34:56.035Z,101195.50
2024-01-11T03:37:23.485Z,101185.94
2024-01-11T03:39:50.947Z,101182.38
2024-01-11T03:42:17.474Z,101174.09
2024-01-11T03:44:45.010Z,101174.84
2024-01-11T03:47:11.607Z,101164.91
2024-01-11T03:49:39.049Z,101157.00
2024-01-11T03:52:05.599Z,101158.19
2024-01-11T03:54:32.147Z,101158.88
2024-01-11T03:56:59.661Z,101161.28
2024-01-11T03:59:26.264Z,101161.00
2024-01-11T04:01:53.681Z,101158.59
2024-01-11T04:04:20.321Z,101162.63
2024-01-11T04:06:47.833Z,101162.22
2024-01-11T04:09:14.370Z,101160.16
2024-01-11T04:11:40.940Z,101151.88
2024-01-11T04:14:08.448Z,101151.47
2024-01-11T04:16:34.986Z,101148.69
2024-01-11T04:19:02.505Z,101167.38
2024-01-11T04:21:29.058Z,101165.34
2024-01-11T04:23:55.572Z,101160.63
2024-01-11T04:26:22.148Z,101172.53
2024-01-11T04:28:48.688Z,101161.06
2024-01-11T04:31:15.222Z,101157.09
2024-01-11T04:33:42.755Z,101167.38
2024-01-11T04:36:10.252Z,101175.34
2024-01-11T04:38:36.886Z,101188.78
2024-01-11T04:41:03.441Z,101180.88
2024-01-11T04:43:30.913Z,101179.31
2024-01-11T04:45:57.465Z,101163.41
2024-01-11T04:48:24.099Z,101169.41
2024-01-11T04:50:50.782Z,101175.34
2024-01-11T04:53:17.449Z,101165.00
2024-01-11T04:55:43.989Z,101174.16
2024-01-11T04:58:10.528Z,101175.31
2024-01-11T05:00:38.336Z,101171.88
2024-01-11T05:03:04.895Z,101172.34
2024-01-11T05:05:32.477Z,101160.53
2024-01-11T05:07:59.075Z,101151.47
2024-01-11T05:10:26.550Z,101148.72
2024-01-11T05:12:54.040Z,101137.56
2024-01-11T05:15:20.564Z,101128.50
2024-01-11T05:17:47.938Z,101133.66
2024-01-11T05:20:14.543Z,101119.72
2024-01-11T05:22:42.022Z,101108.28
2024-01-11T05:25:08.534Z,101106.69
2024-01-11T05:27:35.096Z,101102.28
2024-01-11T05:30:01.678Z,101102.31
2024-01-11T05:32:29.262Z,101112.59
2024-01-11T05:34:56.899Z,101096.78
2024-01-11T05:37:23.509Z,101104.28
2024-01-11T05:39:50.045Z,101097.22
2024-01-11T05:42:17.514Z,101089.31
2024-01-11T05:44:44.056Z,101082.53
2024-01-11T05:47:10.632Z,101077.34
2024-01-11T05:49:37.180Z,101084.59
2024-01-11T05:52:04.647Z,101078.63
2024-01-11T05:54:32.101Z,101085.34
2024-01-11T05:56:59.534Z,101073.78
2024-01-11T05:59:26.055Z,101073.00
2024-01-11T06:01:53.445Z,101052.00
2024-01-11T06:04:20.944Z,101052.19
2024-01-11T06:06:47.507Z,101048.69
2024-01-11T06:09:14.055Z,101046.78
2024-01-11T06:11:40.773Z,101050.75
2024-01-11T06:14:07.476Z,101044.03
2024-01-11T06:16:34.004Z,101041.97
2024-01-11T06:19:01.465Z,101044.75
2024-01-11T06:21:28.039Z,101043.13
2024-01-11T06:23:55.523Z,101030.44
2024-01-11T06:26:22.105Z,101038.31
2024-01-11T06:28:49.589Z,101039.13
2024-01-11T06:31:16.131Z,101033.97
2024-01-11T06:33:42.843Z,101025.19
2024-01-11T06:36:09.461Z,101035.88
2024-01-11T06:38:36.064Z,101034.66
2024-01-11T06:41:02.764Z,101041.44
2024-01-11T06:43:30.275Z,101026.75
2024-01-11T06:45:57.742Z,101021.19
2024-01-11T06:48:24.557Z,101025.94
2024-01-11T06:50:52.215Z,101020.44
2024-01-11T06:53:19.770Z,101031.13
2024-01-11T06:55:47.277Z,101017.63
2024-01-11T06:58:13.840Z,101020.00
2024-01-11T07:00:40.439Z,101029.97
2024-01-11T07:03:07.792Z,101018.38
2024-01-11T07:05:34.398Z,101012.09
2024-01-11T07:08:01.981Z,101009.66
2024-01-11T07:10:29.487Z,101006.91
2024-01-11T07:12:56.060Z,101005.34
2024-01-11T07:15:23.560Z,100990.63
2024-01-11T07:17:50.182Z,101006.47
2024-01-11T07:20:16.881Z,101000.56
2024-01-11T07:22:44.392Z,101000.16
2024-01-11T07:25:10.953Z,101010.88
2024-01-11T07:27:38.435Z,101010.06
2024-01-11T07:30:05.971Z,101004.53
2024-01-11T07:32:32.594Z,101007.31
2024-01-11T07:35:00.251Z,100997.38
2024-01-11T07:37:27.754Z,100988.28
2024-01-11T07:39:55.359Z,100996.66
2024-01-11T07:42:22.813Z,101004.19
2024-01-11T07:44:50.320Z,101006.16
2024-01-11T07:47:16.886Z,100999.41
2024-01-11T07:49:43.562Z,100991.00
2024-01-11T07:52:10.146Z,101008.13
2024-01-11T07:54:37.618Z,101011.31
2024-01-11T07:57:04.166Z,101010.47
2024-01-11T07:59:30.720Z,101006.53
2024-01-11T08:01:57.871Z,101012.44
2024-01-11T08:04:24.444Z,101014.88
2024-01-11T08:06:51.039Z,101013.28
2024-01-11T08:09:17.599Z,101023.59
2024-01-11T08:11:50.274Z,101010.94
2024-01-11T08:14:18.793Z,101017.22
2024-01-11T08:16:45.305Z,101023.94
2024-01-11T08:19:12.887Z,101013.22
2024-01-11T08:21:40.364Z,101014.41
2024-01-11T08:24:06.930Z,101012.78
2024-01-11T08:26:33.539Z,101008.88
2024-01-11T08:29:01.171Z,101017.59
2024-01-11T08:31:28.834Z,101013.22
2024-01-11T08:33:56.504Z,101007.69
2024-01-11T08:36:24.165Z,101012.81
2024-01-11T08:38:50.836Z,101019.25
2024-01-11T08:41:17.561Z,101024.47
2024-01-11T08:43:44.168Z,101012.16
2024-01-11T08:46:10.766Z,101015.34
2024-01-11T08:48:38.496Z,101022.13
2024-01-11T08:51:06.173Z,101014.56
2024-01-11T08:53:32.832Z,101015.41
2024-01-11T08:56:00.447Z,101005.44
2024-01-11T08:58:28.021Z,101007.84
2024-01-11T09:00:54.834Z,101010.97
2024-01-11T09:03:22.464Z,100996.34
2024-01-11T09:05:49.397Z,101000.66
2024-01-11T09:08:16.048Z,101005.41
2024-01-11T09:10:42.750Z,100998.25
2024-01-11T09:13:11.778Z,100985.63
2024-01-11T09:15:39.739Z,100988.41
2024-01-11T09:18:06.469Z,100991.13
2024-01-11T09:20:33.173Z,101000.25
2024-01-11T09:23:00.715Z,100996.09
2024-01-11T09:25:27.343Z,101004.38
2024-01-11T09:27:53.932Z,100992.91
2024-01-11T09:30:21.458Z,100993.50
2024-01-11T09:32:49.165Z,100986.78
2024-01-11T09:35:17.069Z,100979.91
2024-01-11T09:37:43.765Z,100973.59
2024-01-11T09:40:10.321Z,100967.03
2024-01-11T09:42:36.906Z,100972.00
2024-01-11T09:45:05.158Z,100965.31
2024-01-11T09:47:32.095Z,100952.31
2024-01-11T09:49:58.937Z,100962.97
2024-01-11T09:52:25.748Z,100962.41
2024-01-11T09:54:53.598Z,100965.50
2024-01-11T09:57:21.344Z,100952.38
2024-01-11T09:59:48.994Z,100957.44
2024-01-11T10:02:16.752Z,100943.59
2024-01-11T10:04:43.488Z,100935.63
2024-01-11T10:07:10.082Z,100923.25
2024-01-11T10:09:37.615Z,100933.75
2024-01-11T10:12:04.214Z,100919.72
2024-01-11T10:14:30.776Z,100924.13
2024-01-11T10:16:58.361Z,100926.28
2024-01-11T10:19:25.150Z,100936.28
2024-01-11T10:21:51.804Z,100940.66
2024-01-11T10:24:19.270Z,100937.59
2024-01-11T10:26:45.889Z,100930.41
2024-01-11T10:29:14.069Z,100917.81
2024-01-11T10:31:40.852Z,100920.97
2024-01-11T10:34:07.475Z,100927.34
2024-01-11T10:36:34.092Z,100932.16
2024-01-11T10:39:01.580Z,100919.81
2024-01-11T10:41:29.081Z,100914.72
2024-01-11T10:43:55.622Z,100914.31
2024-01-11T10:46:22.135Z,100913.56
2024-01-11T10:48:49.654Z,100915.13
2024-01-11T10:51:17.209Z,100919.91
2024-01-11T10:53:43.877Z,100898.06
2024-01-11T10:56:10.647Z,100909.97
2024-01-11T10:58:37.251Z,100900.06
2024-01-11T11:01:03.873Z,100903.28
2024-01-11T11:03:31.312Z,100896.53
2024-01-11T11:05:57.985Z,100893.75
2024-01-11T11:08:25.514Z,100890.19
2024-01-11T11:10:53.033Z,100878.72
2024-01-11T11:13:19.696Z,100871.53
2024-01-11T11:15:47.153Z,100875.88
2024-01-11T11:18:13.779Z,100867.59
2024-01-11T11:20:41.340Z,100866.03
2024-01-11T11:23:08.053Z,100856.84
2024-01-11T11:25:35.660Z,100861.63
2024-01-11T11:28:02.265Z,100854.09
2024-01-11T11:30:29.773Z,100840.97
2024-01-11T11:32:56.542Z,100841.38
2024-01-11T11:35:23.203Z,100844.97
2024-01-11T11:37:50.734Z,100836.25
2024-01-11T11:40:17.271Z,100838.22
2024-01-11T11:42:44.711Z,100836.25
2024-01-11T11:45:12.211Z,100846.16
2024-01-11T11:47:39.914Z,100834.25
2024-01-11T11:50:06.824Z,100836.66
2024-01-11T11:52:33.413Z,100834.25
2024-01-11T11:55:00.888Z,100823.97
2024-01-11T11:57:27.432Z,100833.50
2024-01-11T11:59:54.035Z,100839.03
2024-01-11T12:02:21.609Z,100843.41
2024-01-11T12:04:49.183Z,100846.94
2024-01-11T12:07:16.759Z,100834.28
2024-01-11T12:09:44.252Z,100843.00
2024-01-11T12:12:15.673Z,100850.16
2024-01-11T12:14:43.091Z,100845.00
2024-01-11T12:17:10.681Z,100851.34
2024-01-11T12:19:38.266Z,100848.56
2024-01-11T12:22:04.927Z,100839.44
2024-01-11T12:24:32.444Z,100820.03
2024-01-11T12:26:59.120Z,100821.19
2024-01-11T12:29:25.767Z,100810.50
2024-01-11T12:31:52.356Z,100816.03
2024-01-11T12:34:19.201Z,100827.97
2024-01-11T12:36:46.769Z,100831.94
2024-01-11T12:39:13.330Z,100835.91
2024-01-11T12:41:40.868Z,100838.69
2024-01-11T12:44:07.574Z,100837.50
2024-01-11T12:46:34.231Z,100828.38
2024-01-11T12:49:00.848Z,100822.81
2024-01-11T12:51:28.550Z,100818.47
2024-01-11T12:53:56.123Z,100828.38
2024-01-11T12:56:23.205Z,100816.50
2024-01-11T12:58:50.155Z,100814.09
2024-01-11T13:01:17.664Z,100811.34
2024-01-11T13:03:44.308Z,100816.47
2024-01-11T13:06:11.870Z,100801.00
2024-01-11T13:08:39.461Z,100802.22
2024-01-11T13:11:06.127Z,100805.75
2024-01-11T13:13:32.714Z,100812.88
2024-01-11T13:16:00.235Z,100812.88
2024-01-11T13:18:26.844Z,100822.53
2024-01-11T13:20:53.425Z,100821.66
2024-01-11T13:23:21.022Z,100835.47
2024-01-11T13:25:48.574Z,100825.94
2024-01-11T13:28:16.054Z,100831.53
2024-01-11T13:30:43.724Z,100827.09
2024-01-11T13:33:11.454Z,100814.81
2024-01-11T13:35:38.114Z,100817.19
2024-01-11T13:38:05.643Z,100815.56
2024-01-11T13:40:32.278Z,100811.19
2024-01-11T13:42:58.814Z,100823.53
2024-01-11T13:45:26.365Z,100809.63
2024-01-11T13:47:53.025Z,100804.50
2024-01-11T13:50:21.699Z,100801.72
2024-01-11T13:52:49.319Z,100790.59
2024-01-11T13:55:15.881Z,100795.38
2024-01-11T13:57:43.378Z,100780.66
2024-01-11T14:00:10.898Z,100772.75
2024-01-11T14:02:37.489Z,100762.84
2024-01-11T14:05:04.133Z,100758.06
2024-01-11T14:07:30.828Z,100762.03
2024-01-11T14:09:58.390Z,100761.63
2024-01-11T14:12:25.849Z,100762.81
2024-01-11T14:14:52.491Z,100759.28
2024-01-11T14:17:19.153Z,100761.22
2024-01-11T14:19:46.744Z,100761.66
2024-01-11T14:22:13.462Z,100760.81
2024-01-11T14:24:40.049Z,100760.44
2024-01-11T14:27:06.586Z,100773.56
2024-01-11T14:29:33.156Z,100760.84
2024-01-11T14:32:00.656Z,100757.28
2024-01-11T14:34:28.964Z,100768.38
2024-01-11T14:36:55.803Z,100771.16
2024-01-11T14:39:22.354Z,100771.56
2024-01-11T14:41:49.853Z,100777.50
2024-01-11T14:44:18.333Z,100799.34
2024-01-11T14:46:45.839Z,100802.50
2024-01-11T14:49:12.474Z,100812.44
2024-01-11T14:51:40.030Z,100811.63
2024-01-11T14:54:07.567Z,100813.19
2024-01-11T14:56:34.149Z,100809.66
2024-01-11T14:59:00.713Z,100808.88
2024-01-11T15:01:27.279Z,100810.06
2024-01-11T15:03:53.913Z,100808.06
2024-01-11T15:06:21.547Z,100805.28
2024-01-11T15:08:49.133Z,100804.94
2024-01-11T15:11:16.674Z,100797.03
2024-01-11T15:13:43.247Z,100802.97
2024-01-11T15:16:10.784Z,100803.78
2024-01-11T15:18:38.419Z,100807.34
2024-01-11T15:21:06.051Z,100812.88
2024-01-11T15:23:32.707Z,100806.53
2024-01-11T15:25:59.354Z,100813.28
2024-01-11T15:28:25.949Z,100812.13
2024-01-11T15:30:52.574Z,100812.13
2024-01-11T15:33:20.255Z,100828.75
2024-01-11T15:35:47.829Z,100820.00
2024-01-11T15:38:14.490Z,100821.59
2024-01-11T15:40:41.048Z,100825.56
2024-01-11T15:43:07.611Z,100827.25
2024-01-11T15:45:36.333Z,100815.69
2024-01-11T15:48:04.375Z,100816.88
2024-01-11T15:50:32.585Z,100806.91
2024-01-11T15:53:00.205Z,100812.06
2024-01-11T15:55:27.714Z,100811.66
2024-01-11T15:57:54.288Z,100809.66
2024-01-11T16:00:20.881Z,100814.03
2024-01-11T16:02:48.482Z,100820.00
2024-01-11T16:05:15.237Z,100817.59
2024-01-11T16:07:42.789Z,100811.66
2024-01-11T16:10:09.315Z,100818.38
2024-01-11T16:12:35.937Z,100814.81
2024-01-11T16:15:02.573Z,100809.28
2024-01-11T16:17:31.525Z,100812.03
2024-01-11T16:19:59.849Z,100802.50
2024-01-11T16:22:26.416Z,100807.28
2024-01-11T16:24:52.951Z,100810.06
2024-01-11T16:27:20.431Z,100821.56
2024-01-11T16:29:47.280Z,100809.28
2024-01-11T16:32:14.046Z,100816.38
2024-01-11T16:34:41.662Z,100824.72
2024-01-11T16:37:08.290Z,100827.09
2024-01-11T16:39:35.814Z,100822.75
2024-01-11T16:42:03.391Z,100823.91
2024-01-11T16:44:30.106Z,100831.09
2024-01-11T16:46:56.692Z,100816.75
2024-01-11T16:49:24.229Z,100821.53
2024-01-11T16:51:51.735Z,100827.88
2024-01-11T16:54:19.238Z,100832.63
2024-01-11T16:56:45.849Z,100836.63
2024-01-11T16:59:13.429Z,100841.38
2024-01-11T17:01:40.038Z,100850.13
2024-01-11T17:04:07.790Z,100851.31
2024-01-11T17:06:35.837Z,100856.84
2024-01-11T17:09:02.678Z,100857.66
2024-01-11T17:11:30.562Z,100856.06
2024-01-11T17:13:57.206Z,100854.06
2024-01-11T17:16:23.786Z,100857.25
2024-01-11T17:18:51.451Z,100862.00
2024-01-11T17:21:18.083Z,100852.47
2024-01-11T17:23:44.762Z,100852.44
2024-01-11T17:26:12.315Z,100856.84
2024-01-11T17:28:38.900Z,100857.66
2024-01-11T17:31:05.557Z,100855.25
2024-01-11T17:33:32.431Z,100865.19
2024-01-11T17:35:59.154Z,100864.78
2024-01-11T17:38:25.805Z,100871.50
2024-01-11T17:40:52.400Z,100872.28
2024-01-11T17:43:19.916Z,100869.13
2024-01-11T17:45:46.524Z,100870.34
2024-01-11T17:48:14.193Z,100877.84
2024-01-11T17:50:40.823Z,100887.00
2024-01-11T17:53:07.428Z,100885.38
2024-01-11T17:55:34.986Z,100885.38
2024-01-11T17:58:02.490Z,100891.72
2024-01-11T18:00:29.034Z,100890.16
2024-01-11T18:02:55.654Z,100875.88
2024-01-11T18:05:22.408Z,100886.97
2024-01-11T18:07:49.076Z,100885.38
2024-01-11T18:10:16.552Z,100888.53
2024-01-11T18:12:43.125Z,100890.19
2024-01-11T18:15:09.773Z,100893.38
2024-01-11T18:17:36.374Z,100904.47
2024-01-11T18:20:03.927Z,100900.94
2024-01-11T18:22:33.037Z,100897.34
2024-01-11T18:25:00.721Z,100903.69
2024-01-11T18:27:27.278Z,100897.75
2024-01-11T18:29:54.911Z,100888.63
2024-01-11T18:32:22.718Z,100889.81
2024-01-11T18:34:50.283Z,100891.41
2024-01-11T18:37:17.967Z,100904.09
2024-01-11T18:39:45.455Z,100898.56
2024-01-11T18:42:12.083Z,100902.94
2024-01-11T18:44:38.714Z,100919.59
2024-01-11T18:47:05.396Z,100923.53
2024-01-11T18:49:33.089Z,100923.53
2024-01-11T18:52:00.770Z,100930.72
2024-01-11T18:54:27.374Z,100927.56
2024-01-11T18:56:54.049Z,100922.00
2024-01-11T18:59:21.574Z,100922.78
2024-01-11T19:01:48.212Z,100915.63
2024-01-11T19:04:15.952Z,100923.97
2024-01-11T19:06:42.641Z,100931.50
2024-01-11T19:09:10.211Z,100933.91
2024-01-11T19:11:36.798Z,100931.13
2024-01-11T19:14:03.367Z,100935.88
2024-01-11T19:16:29.937Z,100947.78
2024-01-11T19:18:56.659Z,100943.41
2024-01-11T19:21:24.298Z,100949.34
2024-01-11T19:23:50.886Z,100954.91
2024-01-11T19:26:17.499Z,100956.09
2024-01-11T19:28:44.105Z,100966.84
2024-01-11T19:31:12.179Z,100969.63
2024-01-11T19:33:38.840Z,100970.41
2024-01-11T19:36:05.730Z,100978.72
2024-01-11T19:38:33.347Z,100977.13
2024-01-11T19:40:59.931Z,100981.09
2024-01-11T19:43:26.506Z,100985.47
2024-01-11T19:45:53.054Z,100995.00
2024-01-11T19:48:20.702Z,100999.75
2024-01-11T19:50:47.445Z,101006.88
2024-01-11T19:53:15.023Z,101014.06
2024-01-11T19:55:41.601Z,101006.50
2024-01-11T19:58:08.175Z,101016.00
2024-01-11T20:00:34.817Z,101022.38
2024-01-11T20:03:02.397Z,101013.22
2024-01-11T20:05:29.012Z,101019.59
2024-01-11T20:07:56.542Z,101026.72
2024-01-11T20:10:23.215Z,101018.38
2024-01-11T20:12:49.831Z,101034.25
2024-01-11T20:15:16.614Z,101043.78
2024-01-11T20:17:44.239Z,101050.53
2024-01-11T20:20:11.033Z,101046.97
2024-01-11T20:22:37.657Z,101057.25
2024-01-11T20:25:04.581Z,101060.84
2024-01-11T20:27:31.595Z,101059.25
2024-01-11T20:29:59.173Z,101058.88
2024-01-11T20:32:25.898Z,101056.09
2024-01-11T20:34:52.632Z,101056.09
2024-01-11T20:37:20.138Z,101053.50
2024-01-11T20:39:46.729Z,101062.69
2024-01-11T20:42:14.257Z,101059.13
2024-01-11T20:44:41.727Z,101065.47
2024-01-11T20:47:08.465Z,101071.47
2024-01-11T20:49:35.924Z,101082.59
2024-01-11T20:52:02.524Z,101073.34
2024-01-11T20:54:29.155Z,101079.19
2024-01-11T20:56:57.551Z,101082.41
2024-01-11T20:59:24.985Z,101089.56
2024-01-11T21:01:51.643Z,101088.41
2024-01-11T21:04:18.978Z,101095.50
2024-01-11T21:06:47.519Z,101094.00
2024-01-11T21:09:15.995Z,101098.66
2024-01-11T21:11:44.455Z,101103.41
2024-01-11T21:14:11.865Z,101101.06
2024-01-11T21:16:40.502Z,101105.03
2024-01-11T21:19:08.957Z,101110.56
2024-01-11T21:21:38.221Z,101115.91
2024-01-11T21:24:07.487Z,101129.75
2024-01-11T21:26:34.214Z,101136.81
2024-01-11T21:29:01.573Z,101143.91
2024-01-11T21:31:28.984Z,101145.53
2024-01-11T21:33:55.807Z,101144.75
2024-01-11T21:36:23.335Z,101159.75
2024-01-11T21:38:50.795Z,101159.75
2024-01-11T21:41:17.427Z,101155.78
2024-01-11T21:43:46.723Z,101164.94
2024-01-11T21:46:13.316Z,101166.91
2024-01-11T21:48:39.923Z,101165.34
2024-01-11T21:51:09.306Z,101166.56
2024-01-11T21:53:38.645Z,101166.53
2024-01-11T21:56:07.893Z,101162.59
2024-01-11T21:58:36.273Z,101171.34
2024-01-11T22:01:02.820Z,101166.16
2024-01-11T22:03:29.377Z,101169.31
2024-01-11T22:05:57.017Z,101166.56
2024-01-11T22:08:24.442Z,101170.16
2024-01-11T22:10:50.957Z,101172.91
2024-01-11T22:13:17.433Z,101175.66
2024-01-11T22:15:43.866Z,101183.94
2024-01-11T22:18:10.453Z,101182.78
2024-01-11T22:20:37.053Z,101190.78
2024-01-11T22:23:03.578Z,101195.13
2024-01-11T22:25:30.032Z,101199.91
2024-01-11T22:27:56.513Z,101200.66
2024-01-11T22:30:22.997Z,101210.56
2024-01-11T22:32:49.530Z,101206.59
2024-01-11T22:35:16.018Z,101210.13
2024-01-11T22:37:42.485Z,101212.91
2024-01-11T22:40:08.995Z,101215.31
2024-01-11T22:42:35.424Z,101214.09
2024-01-11T22:45:01.854Z,101210.94
2024-01-11T22:47:28.549Z,101220.41
2024-01-11T22:49:55.020Z,101215.44
2024-01-11T22:52:21.442Z,101226.00
2024-01-11T22:54:48.023Z,101224.81
2024-01-11T22:57:15.334Z,101238.69
2024-01-11T22:59:41.797Z,101232.75
2024-01-11T23:02:08.234Z,101237.91
2024-01-11T23:04:34.688Z,101239.47
2024-01-11T23:07:01.132Z,101243.06
2024-01-11T23:09:27.521Z,101245.41
2024-01-11T23:11:54.047Z,101242.97
2024-01-11T23:14:20.571Z,101248.56
2024-01-11T23:16:47.006Z,101242.97
2024-01-11T23:19:13.457Z,101264.41
2024-01-11T23:21:39.971Z,101252.09
2024-01-11T23:24:06.490Z,101253.69
2024-01-11T23:26:32.969Z,101252.16
2024-01-11T23:28:59.433Z,101252.94
2024-01-11T23:31:25.863Z,101252.16
2024-01-11T23:33:52.421Z,101250.13
2024-01-11T23:36:19.802Z,101263.19
2024-01-11T23:38:46.292Z,101272.63
2024-01-11T23:41:12.795Z,101273.09
2024-01-11T23:43:39.250Z,101278.66
2024-01-11T23:46:05.699Z,101279.44
2024-01-11T23:48:32.199Z,101283.03
2024-01-11T23:50:58.762Z,101279.03
2024-01-11T23:53:25.259Z,101283.84
2024-01-11T23:55:51.701Z,101281.81
2024-01-11T23:58:18.141Z,101292.06
